TimeEDT,TemperatureF,Dew PointF,Humidity,Sea Level PressureIn,VisibilityMPH,Wind Direction,Wind SpeedMPH,Gust SpeedMPH,PrecipitationIn,Events,Conditions,WindDirDegrees,DateUTC
12:15 AM,78.8,69.8,74,30.06,10.0,SSW,10.4,-,N/A,,Clear,210,2013-07-20 04:15:00
12:35 AM,77.0,69.8,78,30.06,10.0,SSW,11.5,19.6,N/A,,Clear,210,2013-07-20 04:35:00
12:55 AM,77.0,69.8,78,30.06,10.0,SSW,12.7,16.1,N/A,,Clear,210,2013-07-20 04:55:00
1:15 AM,77.0,69.8,78,30.06,10.0,SSW,12.7,18.4,N/A,,Clear,210,2013-07-20 05:15:00
1:35 AM,75.2,69.8,83,30.05,10.0,SW,10.4,-,N/A,,Clear,220,2013-07-20 05:35:00
1:55 AM,75.2,69.8,83,30.05,10.0,SW,12.7,18.4,N/A,,Clear,220,2013-07-20 05:55:00
2:15 AM,75.2,69.8,83,30.04,10.0,SW,12.7,-,N/A,,Clear,230,2013-07-20 06:15:00
2:35 AM,75.2,69.8,83,30.04,10.0,SW,12.7,-,N/A,,Clear,220,2013-07-20 06:35:00
2:55 AM,75.2,69.8,83,30.04,10.0,SW,11.5,-,N/A,,Clear,220,2013-07-20 06:55:00
3:15 AM,75.2,69.8,83,30.04,10.0,SW,9.2,-,N/A,,Partly Cloudy,220,2013-07-20 07:15:00
3:35 AM,75.2,69.8,83,30.04,10.0,SW,10.4,16.1,N/A,,Mostly Cloudy,230,2013-07-20 07:35:00
3:55 AM,75.2,69.8,83,30.04,10.0,SW,12.7,17.3,N/A,,Overcast,230,2013-07-20 07:55:00
4:15 AM,75.2,69.8,83,30.04,10.0,SW,11.5,-,N/A,,Overcast,230,2013-07-20 08:15:00
4:35 AM,75.2,69.8,83,30.05,10.0,SW,11.5,16.1,N/A,,Overcast,230,2013-07-20 08:35:00
4:55 AM,75.2,69.8,83,30.05,10.0,SW,11.5,-,N/A,,Overcast,220,2013-07-20 08:55:00
5:15 AM,75.2,69.8,83,30.04,10.0,SW,10.4,-,N/A,,Overcast,230,2013-07-20 09:15:00
5:35 AM,75.2,69.8,83,30.04,10.0,WSW,8.1,-,N/A,,Overcast,240,2013-07-20 09:35:00
5:55 AM,75.2,69.8,83,30.04,10.0,WSW,9.2,17.3,N/A,,Overcast,240,2013-07-20 09:55:00
6:15 AM,75.2,69.8,83,30.04,10.0,WSW,8.1,-,N/A,,Overcast,240,2013-07-20 10:15:00
6:35 AM,75.2,69.8,83,30.04,10.0,WSW,9.2,-,N/A,,Overcast,240,2013-07-20 10:35:00
6:55 AM,75.2,69.8,83,30.04,10.0,SW,9.2,-,N/A,,Overcast,230,2013-07-20 10:55:00
7:15 AM,75.2,69.8,83,30.05,10.0,SW,6.9,-,N/A,,Overcast,230,2013-07-20 11:15:00
7:35 AM,75.2,69.8,83,30.06,10.0,SW,10.4,-,N/A,,Overcast,230,2013-07-20 11:35:00
7:55 AM,75.2,69.8,83,30.06,10.0,SW,10.4,-,N/A,,Overcast,230,2013-07-20 11:55:00
8:15 AM,75.2,69.8,83,30.06,10.0,SW,8.1,-,N/A,,Overcast,220,2013-07-20 12:15:00
8:35 AM,77.0,69.8,78,30.06,10.0,SW,9.2,-,N/A,,Overcast,230,2013-07-20 12:35:00
8:55 AM,77.0,69.8,78,30.06,10.0,WSW,10.4,-,N/A,,Overcast,240,2013-07-20 12:55:00
9:15 AM,78.8,69.8,74,30.06,10.0,SW,5.8,-,N/A,,Overcast,230,2013-07-20 13:15:00
9:35 AM,78.8,69.8,74,30.06,10.0,WSW,6.9,-,N/A,,Overcast,240,2013-07-20 13:35:00
9:55 AM,78.8,69.8,74,30.06,10.0,WSW,10.4,-,N/A,,Overcast,250,2013-07-20 13:55:00
10:15 AM,82.4,69.8,66,30.06,10.0,WSW,8.1,-,N/A,,Overcast,250,2013-07-20 14:15:00
10:35 AM,80.6,69.8,70,30.06,10.0,WSW,8.1,-,N/A,,Overcast,250,2013-07-20 14:35:00
10:55 AM,82.4,69.8,66,30.07,10.0,West,10.4,-,N/A,,Overcast,260,2013-07-20 14:55:00
11:15 AM,82.4,69.8,66,30.06,10.0,WSW,9.2,-,N/A,,Overcast,240,2013-07-20 15:15:00
11:35 AM,82.4,69.8,66,30.06,10.0,WSW,5.8,-,N/A,,Overcast,240,2013-07-20 15:35:00
11:55 AM,82.4,69.8,66,30.05,10.0,WSW,11.5,-,N/A,,Mostly Cloudy,250,2013-07-20 15:55:00
12:15 PM,84.2,71.6,66,30.05,10.0,WSW,5.8,-,N/A,,Overcast,240,2013-07-20 16:15:00
12:35 PM,84.2,71.6,66,30.05,10.0,WSW,10.4,-,N/A,,Mostly Cloudy,250,2013-07-20 16:35:00
12:55 PM,84.2,71.6,66,30.04,10.0,SW,6.9,-,N/A,,Mostly Cloudy,220,2013-07-20 16:55:00
1:15 PM,87.8,71.6,58,30.03,10.0,SW,11.5,16.1,N/A,,Mostly Cloudy,230,2013-07-20 17:15:00
1:35 PM,87.8,69.8,55,30.02,10.0,WSW,12.7,17.3,N/A,,Overcast,240,2013-07-20 17:35:00
1:55 PM,87.8,71.6,58,30.01,10.0,WSW,9.2,-,N/A,,Scattered Clouds,240,2013-07-20 17:55:00
2:15 PM,89.6,69.8,52,30.00,10.0,West,5.8,-,N/A,,Scattered Clouds,270,2013-07-20 18:15:00
2:35 PM,87.8,69.8,55,30.00,10.0,SW,9.2,-,N/A,,Mostly Cloudy,220,2013-07-20 18:35:00
2:55 PM,89.6,69.8,52,29.99,10.0,WSW,5.8,16.1,N/A,,Overcast,250,2013-07-20 18:55:00
3:15 PM,87.8,69.8,55,29.98,10.0,SSW,8.1,-,N/A,,Mostly Cloudy,210,2013-07-20 19:15:00
3:35 PM,87.8,69.8,55,29.97,10.0,SSW,12.7,-,N/A,,Mostly Cloudy,210,2013-07-20 19:35:00
3:55 PM,89.6,69.8,52,29.97,10.0,South,13.8,19.6,N/A,,Mostly Cloudy,180,2013-07-20 19:55:00
4:15 PM,87.8,69.8,55,29.97,10.0,SSW,12.7,-,N/A,,Overcast,210,2013-07-20 20:15:00
4:35 PM,89.6,69.8,52,29.96,10.0,SSW,12.7,-,N/A,,Scattered Clouds,210,2013-07-20 20:35:00
4:55 PM,89.6,69.8,52,29.96,10.0,SSW,11.5,-,N/A,,Mostly Cloudy,210,2013-07-20 20:55:00
5:15 PM,89.6,69.8,52,29.96,10.0,SW,15.0,-,N/A,,Overcast,220,2013-07-20 21:15:00
5:35 PM,87.8,69.8,55,29.96,10.0,SW,9.2,16.1,N/A,,Partly Cloudy,230,2013-07-20 21:35:00
5:55 PM,87.8,68.0,52,29.95,10.0,SW,11.5,18.4,N/A,,Clear,220,2013-07-20 21:55:00
6:15 PM,87.8,68.0,52,29.95,10.0,SW,11.5,17.3,N/A,,Scattered Clouds,220,2013-07-20 22:15:00
6:35 PM,87.8,68.0,52,29.95,10.0,SW,12.7,-,N/A,,Scattered Clouds,220,2013-07-20 22:35:00
6:55 PM,86.0,68.0,55,29.95,10.0,WSW,10.4,-,N/A,,Scattered Clouds,240,2013-07-20 22:55:00
7:15 PM,84.2,68.0,58,29.95,10.0,SW,6.9,16.1,N/A,,Clear,220,2013-07-20 23:15:00
7:35 PM,84.2,69.8,62,29.96,10.0,SW,3.5,-,N/A,,Clear,230,2013-07-20 23:35:00
7:55 PM,82.4,68.0,62,29.97,10.0,SSW,5.8,-,N/A,,Clear,200,2013-07-20 23:55:00
8:15 PM,82.4,68.0,62,29.98,10.0,SSW,6.9,-,N/A,,Clear,200,2013-07-21 00:15:00
8:35 PM,80.6,68.0,65,29.98,10.0,South,3.5,-,N/A,,Clear,190,2013-07-21 00:35:00
8:55 PM,80.6,68.0,65,29.98,10.0,SSW,6.9,-,N/A,,Clear,200,2013-07-21 00:55:00
9:15 PM,80.6,68.0,65,29.99,10.0,SSW,5.8,-,N/A,,Partly Cloudy,210,2013-07-21 01:15:00
9:35 PM,80.6,69.8,70,29.99,10.0,SSW,10.4,-,N/A,,Partly Cloudy,210,2013-07-21 01:35:00
9:55 PM,80.6,69.8,70,30.00,10.0,South,8.1,-,N/A,,Clear,180,2013-07-21 01:55:00
10:15 PM,78.8,69.8,74,30.01,10.0,SSW,8.1,-,N/A,,Clear,200,2013-07-21 02:15:00
10:35 PM,78.8,69.8,74,30.02,10.0,SSW,13.8,-,N/A,,Clear,200,2013-07-21 02:35:00
10:55 PM,77.0,69.8,78,30.02,10.0,SSW,12.7,-,N/A,,Clear,210,2013-07-21 02:55:00
11:15 PM,77.0,69.8,78,30.03,10.0,SSW,13.8,20.7,N/A,,Clear,210,2013-07-21 03:15:00
11:35 PM,75.2,69.8,83,30.03,10.0,SW,11.5,17.3,N/A,,Clear,220,2013-07-21 03:35:00
11:55 PM,75.2,68.0,78,30.03,10.0,SW,11.5,-,N/A,,Clear,220,2013-07-21 03:55:00